Time;durP1;ratioP1;P1;durP2;ratioP2;P2;SDS_P1;SDS_P2;PMS_P1;PMS_P2;Temp;Humidity;BMP_temperature;BMP_pressure;BME280_temperature;BME280_humidity;BME280_pressure;Samples;Min_cycle;Max_cycle;Signal;HPM_P1;HPM_P2
2022/03/05 00:01:19;;;;;;;55.55;24.33;;;;;;;1.30;77.09;100671.28;4423349;32;20148;-78
2022/03/05 00:03:47;;;;;;;56.47;26.87;;;;;;;1.14;78.02;100669.97;4423208;32;20156;-78
2022/03/05 00:06:15;;;;;;;61.13;27.13;;;;;;;1.09;78.11;100667.19;4423568;32;20097;-78
2022/03/05 00:08:45;;;;;;;56.72;26.48;;;;;;;0.93;79.59;100670.19;4408814;32;20183;-78
2022/03/05 00:11:12;;;;;;;57.38;25.42;;;;;;;0.92;79.47;100669.31;4423097;32;20468;-78
2022/03/05 00:13:40;;;;;;;60.17;29.58;;;;;;;0.90;79.64;100668.34;4422973;32;20085;-78
2022/03/05 00:16:07;;;;;;;62.35;27.85;;;;;;;0.82;81.17;100666.38;4423305;32;20115;-78
2022/03/05 00:18:34;;;;;;;58.63;26.90;;;;;;;0.78;81.57;100664.47;4408892;32;20117;-78
2022/03/05 00:21:03;;;;;;;65.75;30.60;;;;;;;0.72;82.64;100662.59;4408913;32;20117;-78
2022/03/05 00:23:30;;;;;;;65.45;26.90;;;;;;;0.77;83.13;100652.34;4409133;32;20077;-78
2022/03/05 00:25:58;;;;;;;66.85;29.85;;;;;;;0.99;80.96;100660.00;4423356;32;20148;-78
2022/03/05 00:28:25;;;;;;;60.20;27.27;;;;;;;0.85;82.35;100666.44;4423191;32;20106;-78
2022/03/05 00:30:58;;;;;;;56.80;26.77;;;;;;;0.84;82.04;100662.97;4423317;32;20124;-78
2022/03/05 00:33:25;;;;;;;84.43;36.10;;;;;;;0.97;80.71;100660.78;4409640;32;20081;-78
2022/03/05 00:35:52;;;;;;;67.18;30.75;;;;;;;0.97;80.76;100659.06;4423233;32;20504;-78
2022/03/05 00:38:21;;;;;;;71.50;29.58;;;;;;;0.81;82.94;100662.00;4408816;32;20109;-78
2022/03/05 00:40:48;;;;;;;73.15;31.23;;;;;;;0.93;81.49;100665.88;4422953;32;20117;-78
2022/03/05 00:43:15;;;;;;;100.62;43.80;;;;;;;1.06;80.19;100661.03;4408702;32;20131;-78
2022/03/05 00:45:42;;;;;;;88.03;33.63;;;;;;;1.10;79.55;100656.00;4424458;32;20128;-78
2022/03/05 00:48:10;;;;;;;78.00;31.25;;;;;;;1.09;80.22;100655.94;4424750;32;20101;-78
2022/03/05 00:50:39;;;;;;;78.97;32.05;;;;;;;1.07;80.79;100647.25;4424866;32;20151;-78
2022/03/05 00:53:06;;;;;;;65.50;29.83;;;;;;;1.02;81.26;100649.69;4424849;32;20082;-78
2022/03/05 00:55:34;;;;;;;79.62;33.10;;;;;;;1.10;80.16;100649.94;4424822;32;20109;-78
2022/03/05 00:58:03;;;;;;;73.78;32.33;;;;;;;1.14;79.53;100650.06;4424782;32;20186;-78
2022/03/05 01:00:30;;;;;;;81.03;35.50;;;;;;;1.30;78.43;100645.34;4424756;32;20493;-78
2022/03/05 01:02:57;;;;;;;77.25;34.25;;;;;;;1.21;79.21;100642.47;4424689;32;20382;-78
2022/03/05 01:05:25;;;;;;;74.12;31.95;;;;;;;1.18;79.52;100638.94;4424788;32;20432;-78
2022/03/05 01:07:52;;;;;;;81.25;31.83;;;;;;;1.18;80.21;100640.66;4424679;32;20271;-78
2022/03/05 01:10:20;;;;;;;72.68;30.27;;;;;;;1.13;80.35;100642.22;4424702;32;20172;-78
2022/03/05 01:12:48;;;;;;;71.22;30.92;;;;;;;1.12;80.34;100643.06;4424964;32;20085;-78
2022/03/05 01:15:15;;;;;;;66.05;29.90;;;;;;;1.07;80.51;100634.28;4424433;32;20129;-78
2022/03/05 01:17:43;;;;;;;61.13;28.23;;;;;;;0.98;81.06;100639.19;4424648;32;20178;-78
2022/03/05 01:20:10;;;;;;;64.50;28.27;;;;;;;0.99;80.63;100638.34;4424600;32;20529;-78
2022/03/05 01:22:37;;;;;;;67.60;30.58;;;;;;;1.09;79.54;100635.19;4424640;32;20488;-78
2022/03/05 01:25:05;;;;;;;69.87;30.85;;;;;;;1.14;78.71;100629.31;4424584;32;20516;-78
2022/03/05 01:27:32;;;;;;;68.37;30.48;;;;;;;1.16;79.01;100634.53;4424588;32;20164;-78
2022/03/05 01:29:59;;;;;;;64.85;28.73;;;;;;;1.14;79.08;100634.50;4424568;32;20132;-78
2022/03/05 01:32:27;;;;;;;70.47;31.40;;;;;;;1.32;77.57;100633.28;4410255;32;20125;-78
2022/03/05 01:34:54;;;;;;;70.43;34.15;;;;;;;1.30;77.08;100632.34;4424543;32;20112;-78
2022/03/05 01:37:21;;;;;;;77.65;34.13;;;;;;;1.18;77.33;100631.16;4410259;32;20197;-78
2022/03/05 01:39:49;;;;;;;70.32;31.35;;;;;;;1.04;78.00;100631.59;4424467;32;20160;-78
2022/03/05 01:42:23;;;;;;;65.75;32.70;;;;;;;0.99;77.65;100638.34;4424487;32;20088;-78
2022/03/05 01:45:11;;;;;;;68.22;30.60;;;;;;;0.95;77.77;100630.47;4424372;32;20419;-78
2022/03/05 01:47:39;;;;;;;60.47;29.42;;;;;;;0.95;77.21;100633.06;4410284;32;20098;-78
2022/03/05 01:50:09;;;;;;;63.30;28.65;;;;;;;0.92;76.64;100629.50;4424440;32;20153;-78
2022/03/05 01:52:36;;;;;;;62.97;27.92;;;;;;;0.88;76.60;100636.31;4424435;32;20077;-78
2022/03/05 01:55:04;;;;;;;66.90;27.60;;;;;;;0.83;76.73;100630.09;4424355;32;20159;-78
2022/03/05 01:57:32;;;;;;;63.40;28.48;;;;;;;0.84;76.66;100636.16;4410001;32;20438;-78
2022/03/05 02:00:00;;;;;;;68.90;29.37;;;;;;;0.83;76.81;100643.06;4424396;32;20177;-78
2022/03/05 02:02:27;;;;;;;67.75;28.75;;;;;;;0.83;76.71;100642.19;4424337;32;20461;-78
2022/03/05 02:04:55;;;;;;;63.72;28.20;;;;;;;0.80;77.02;100634.28;4424347;32;20090;-78
2022/03/05 02:07:23;;;;;;;60.90;27.27;;;;;;;0.82;77.22;100638.72;4424199;32;20086;-78
2022/03/05 02:09:51;;;;;;;58.33;26.95;;;;;;;0.74;77.40;100629.78;4424160;32;20105;-78
2022/03/05 02:12:18;;;;;;;59.55;26.58;;;;;;;0.73;77.56;100646.19;4424145;32;20481;-78
2022/03/05 02:14:45;;;;;;;59.72;27.25;;;;;;;0.67;77.87;100641.69;4424037;32;20150;-78
2022/03/05 02:17:12;;;;;;;57.53;25.20;;;;;;;0.61;78.06;100640.63;4424113;32;20163;-78
2022/03/05 02:19:40;;;;;;;49.05;24.75;;;;;;;0.64;77.76;100648.50;4424028;32;20554;-78
2022/03/05 02:22:10;;;;;;;51.90;24.77;;;;;;;0.64;77.56;100649.38;4423990;32;20077;-78
2022/03/05 02:24:38;;;;;;;53.08;26.02;;;;;;;0.62;77.67;100656.22;4423857;32;20158;-78
2022/03/05 02:27:08;;;;;;;64.62;27.67;;;;;;;0.39;79.73;100654.56;4424108;32;20437;-78
2022/03/05 02:29:35;;;;;;;62.00;27.33;;;;;;;0.14;81.90;100648.59;4423931;32;20181;-78
2022/03/05 02:32:04;;;;;;;48.13;23.73;;;;;;;0.00;83.02;100655.00;4423920;32;20547;-78
2022/03/05 02:34:31;;;;;;;51.42;21.23;;;;;;;-0.14;83.50;100656.19;4423910;32;20164;-78
2022/03/05 02:36:59;;;;;;;43.85;19.77;;;;;;;-0.25;83.15;100648.94;4423916;32;20496;-78
2022/03/05 02:39:26;;;;;;;41.47;19.65;;;;;;;-0.26;82.46;100647.16;4423836;32;20097;-78
2022/03/05 02:41:55;;;;;;;37.15;19.12;;;;;;;-0.30;81.89;100649.59;4423821;32;20159;-78
2022/03/05 02:44:23;;;;;;;41.28;18.30;;;;;;;-0.15;81.05;100650.13;4423727;32;20838;-78
2022/03/05 02:46:51;;;;;;;45.65;20.02;;;;;;;-0.15;80.94;100655.31;4423862;32;20145;-78
2022/03/05 02:49:18;;;;;;;42.25;20.33;;;;;;;-0.26;81.21;100661.81;4424156;32;20102;-78
2022/03/05 02:51:45;;;;;;;59.40;25.17;;;;;;;-0.21;80.80;100656.78;4423892;32;20127;-78
2022/03/05 02:54:13;;;;;;;51.35;24.27;;;;;;;-0.05;79.25;100651.34;4423795;32;20927;-77
2022/03/05 02:56:40;;;;;;;54.65;25.65;;;;;;;0.09;78.20;100649.25;4423847;32;20175;-77
2022/03/05 02:59:08;;;;;;;57.35;26.87;;;;;;;0.12;77.50;100652.81;4423761;32;20156;-77
2022/03/05 03:01:35;;;;;;;60.22;26.95;;;;;;;0.07;78.10;100651.78;4423842;32;20158;-77
2022/03/05 03:04:03;;;;;;;52.28;25.12;;;;;;;0.14;77.09;100643.41;4423813;32;20090;-77
2022/03/05 03:06:31;;;;;;;52.97;25.40;;;;;;;0.14;76.94;100652.84;4423169;32;20127;-78
2022/03/05 03:08:59;;;;;;;61.80;28.00;;;;;;;0.20;76.49;100653.94;4423815;32;20150;-78
2022/03/05 03:11:26;;;;;;;56.95;26.55;;;;;;;0.20;76.46;100655.66;4423959;32;20097;-78
2022/03/05 03:13:53;;;;;;;58.28;26.85;;;;;;;0.35;75.46;100652.72;4423597;32;20114;-78
2022/03/05 03:16:20;;;;;;;56.78;28.10;;;;;;;0.25;76.02;100656.72;4423580;32;20526;-78
2022/03/05 03:18:49;;;;;;;57.83;26.98;;;;;;;0.20;75.99;100653.94;4423713;32;20105;-77
2022/03/05 03:21:16;;;;;;;57.85;25.92;;;;;;;0.19;76.04;100661.69;4396620;32;20459;-78
2022/03/05 03:23:43;;;;;;;64.78;29.25;;;;;;;0.13;76.49;100656.28;4423549;32;20094;-77
2022/03/05 03:26:10;;;;;;;60.88;28.25;;;;;;;0.03;77.18;100659.38;4423648;32;20090;-77
2022/03/05 03:28:37;;;;;;;71.75;28.20;;;;;;;0.04;77.73;100656.88;4423740;32;20109;-77
2022/03/05 03:31:04;;;;;;;60.85;27.02;;;;;;;-0.08;78.04;100653.81;4423632;32;20085;-77
2022/03/05 03:33:32;;;;;;;55.80;26.95;;;;;;;-0.10;78.22;100653.78;4423519;32;20472;-78
2022/03/05 03:35:59;;;;;;;58.33;28.58;;;;;;;-0.06;78.28;100647.00;4423644;32;20089;-77
2022/03/05 03:38:26;;;;;;;60.95;26.35;;;;;;;-0.23;79.50;100649.00;4423569;32;20113;-78
2022/03/05 03:40:53;;;;;;;64.82;29.10;;;;;;;-0.32;79.72;100657.31;4423825;32;20136;-77
2022/03/05 03:43:21;;;;;;;60.12;27.23;;;;;;;-0.26;79.27;100648.88;4423459;32;20098;-78
2022/03/05 03:45:48;;;;;;;59.63;26.92;;;;;;;-0.17;78.98;100654.41;4423480;32;20089;-78
2022/03/05 03:48:15;;;;;;;52.17;24.15;;;;;;;-0.18;78.83;100652.59;4423543;32;20507;-78
2022/03/05 03:50:43;;;;;;;50.28;24.05;;;;;;;0.04;76.56;100650.81;4423460;32;20128;-78
2022/03/05 03:53:10;;;;;;;54.88;24.60;;;;;;;0.12;75.69;100647.63;4423724;32;20154;-77
2022/03/05 03:55:37;;;;;;;49.92;22.80;;;;;;;0.24;74.46;100650.63;4423408;32;20102;-78
2022/03/05 03:58:04;;;;;;;52.60;22.87;;;;;;;0.38;73.17;100653.69;4423465;32;20506;-78
2022/03/05 04:00:32;;;;;;;42.03;19.80;;;;;;;0.41;72.66;100646.03;4423324;32;20498;-78
2022/03/05 04:02:59;;;;;;;44.80;20.65;;;;;;;0.54;71.62;100649.91;4423346;32;20469;-78
2022/03/05 04:05:27;;;;;;;53.83;21.20;;;;;;;0.47;71.74;100654.00;4423238;32;20382;-77
2022/03/05 04:10:40;;;;;;;47.03;19.83;;;;;;;0.49;71.19;100648.84;4423246;32;20136;-78
2022/03/05 04:13:08;;;;;;;41.53;19.42;;;;;;;0.61;70.54;100648.41;4423277;32;20147;-78
2022/03/05 04:15:35;;;;;;;34.72;17.85;;;;;;;0.52;70.52;100650.69;4422989;32;20109;-78
2022/03/05 04:18:04;;;;;;;35.83;17.37;;;;;;;0.54;70.31;100647.31;4408725;32;20163;-78
2022/03/05 04:20:31;;;;;;;32.85;16.67;;;;;;;0.53;70.16;100655.03;4422546;32;20147;-78
2022/03/05 04:22:59;;;;;;;34.35;16.98;;;;;;;0.61;69.28;100658.78;4423085;32;20427;-78
2022/03/05 04:25:26;;;;;;;38.38;17.12;;;;;;;0.61;69.31;100657.06;4423039;32;20113;-78
2022/03/05 04:27:53;;;;;;;33.60;15.25;;;;;;;0.56;69.40;100668.97;4423014;32;20745;-78
2022/03/05 04:30:20;;;;;;;35.42;16.10;;;;;;;0.52;69.50;100661.94;4423035;32;20089;-78
2022/03/05 04:32:48;;;;;;;33.38;15.95;;;;;;;0.54;69.20;100664.59;4423186;32;20085;-78
2022/03/05 04:35:16;;;;;;;35.63;16.35;;;;;;;0.48;69.29;100668.72;4422849;32;20101;-78
2022/03/05 04:37:43;;;;;;;30.73;14.25;;;;;;;0.48;69.46;100673.03;4423130;32;20089;-78
2022/03/05 04:40:11;;;;;;;31.27;15.10;;;;;;;0.53;68.92;100674.09;4408397;32;20108;-78
2022/03/05 04:42:38;;;;;;;32.72;15.30;;;;;;;0.54;69.00;100677.56;4423071;32;20119;-77
2022/03/05 04:45:07;;;;;;;32.10;15.10;;;;;;;0.44;69.34;100676.34;4422861;32;20536;-78
2022/03/05 04:47:36;;;;;;;30.10;15.25;;;;;;;0.39;69.68;100681.41;4422811;32;20101;-77
2022/03/05 04:50:04;;;;;;;29.45;14.60;;;;;;;0.37;69.98;100680.44;4422932;32;20205;-77
2022/03/05 04:52:33;;;;;;;33.13;14.60;;;;;;;0.28;70.44;100674.06;4408535;32;20190;-77
2022/03/05 04:55:02;;;;;;;33.90;15.85;;;;;;;0.34;70.17;100676.88;4408447;32;20129;-77
2022/03/05 04:57:29;;;;;;;31.50;14.60;;;;;;;0.27;70.55;100675.78;4422843;32;20146;-78
2022/03/05 04:59:56;;;;;;;29.85;13.95;;;;;;;0.27;70.58;100680.09;4422692;32;20668;-77
2022/03/05 05:02:24;;;;;;;29.83;14.27;;;;;;;0.31;70.27;100675.06;4422603;32;20423;-78
2022/03/05 05:04:53;;;;;;;27.13;13.73;;;;;;;0.27;70.40;100675.78;4408030;32;20136;-77
2022/03/05 05:07:20;;;;;;;28.35;14.55;;;;;;;0.29;70.36;100676.72;4422596;32;20109;-77
2022/03/05 05:09:47;;;;;;;27.70;13.27;;;;;;;0.35;70.15;100676.03;4422405;32;20081;-78
2022/03/05 05:12:15;;;;;;;30.80;13.05;;;;;;;0.33;70.33;100677.72;4422607;32;20085;-78
2022/03/05 05:14:42;;;;;;;26.23;13.60;;;;;;;0.27;70.40;100675.78;4422275;32;20511;-78
2022/03/05 05:17:10;;;;;;;24.15;12.02;;;;;;;0.22;70.65;100680.81;4422343;32;20558;-78
2022/03/05 05:19:37;;;;;;;27.15;12.60;;;;;;;0.17;71.15;100684.06;4408190;32;20093;-78
2022/03/05 05:22:06;;;;;;;22.90;12.32;;;;;;;0.14;71.59;100683.94;4422683;32;20116;-78
2022/03/05 05:24:35;;;;;;;25.58;12.68;;;;;;;0.09;72.06;100686.38;4422482;32;20497;-78
2022/03/05 05:27:03;;;;;;;25.45;13.27;;;;;;;0.30;70.99;100687.97;4422280;32;20169;-78
2022/03/05 05:29:31;;;;;;;30.73;13.30;;;;;;;0.24;71.37;100693.81;4422231;32;20089;-78
2022/03/05 05:32:10;;;;;;;22.25;12.32;;;;;;;0.36;70.80;100691.66;4424370;32;20440;-78
2022/03/05 05:34:39;;;;;;;25.60;12.23;;;;;;;0.38;70.67;100697.75;4410199;32;20463;-78
2022/03/05 05:37:13;;;;;;;24.10;12.32;;;;;;;0.51;69.86;100704.25;4424510;32;20169;-78
2022/03/05 05:39:41;;;;;;;23.20;12.40;;;;;;;0.56;69.39;100694.03;4410112;32;20111;-77
2022/03/05 05:42:08;;;;;;;31.30;12.65;;;;;;;0.57;69.37;100703.59;4424495;32;20122;-77
2022/03/05 05:44:36;;;;;;;29.73;12.73;;;;;;;0.68;68.80;100699.62;4424207;32;20177;-78
2022/03/05 05:47:05;;;;;;;25.58;12.02;;;;;;;0.70;68.55;100704.00;4424282;32;20147;-78
2022/03/05 05:49:32;;;;;;;26.40;11.90;;;;;;;0.77;68.15;100699.91;4424240;32;20077;-78
2022/03/05 05:52:00;;;;;;;22.95;11.63;;;;;;;0.75;68.20;100705.91;4424291;32;20089;-77
2022/03/05 05:54:28;;;;;;;24.73;11.68;;;;;;;0.80;68.08;100704.31;4409917;32;20570;-78
2022/03/05 05:56:55;;;;;;;25.77;11.48;;;;;;;0.88;67.90;100708.94;4424306;32;20101;-77
2022/03/05 05:59:23;;;;;;;23.08;11.77;;;;;;;0.90;67.78;100701.22;4424367;32;20496;-77
2022/03/05 06:01:50;;;;;;;24.17;12.15;;;;;;;0.82;68.20;100706.16;4409985;32;20085;-78
2022/03/05 06:04:18;;;;;;;21.40;11.63;;;;;;;0.75;68.87;100717.16;4424082;32;20535;-77
2022/03/05 06:06:45;;;;;;;25.80;11.40;;;;;;;0.82;68.67;100721.72;4409784;32;20196;-78
2022/03/05 06:09:12;;;;;;;31.35;13.23;;;;;;;0.91;68.57;100718.53;4424150;32;20082;-77
2022/03/05 06:11:40;;;;;;;29.20;11.18;;;;;;;0.90;68.70;100720.25;4424231;32;20453;-78
2022/03/05 06:14:07;;;;;;;25.48;11.80;;;;;;;1.09;67.80;100719.09;4409503;32;20231;-78
2022/03/05 06:16:34;;;;;;;29.08;12.02;;;;;;;1.19;67.01;100722.88;4424207;32;20097;-78
2022/03/05 06:19:02;;;;;;;25.45;11.48;;;;;;;1.27;66.75;100730.91;4424267;32;20073;-78
2022/03/05 06:21:29;;;;;;;24.98;11.73;;;;;;;1.35;66.22;100732.91;4409731;32;20586;-78
2022/03/05 06:23:56;;;;;;;22.80;11.02;;;;;;;1.43;65.86;100728.84;4423976;32;20119;-78
2022/03/05 06:26:28;;;;;;;21.58;10.02;;;;;;;1.44;65.93;100733.19;4424245;32;20110;-78
2022/03/05 06:28:55;;;;;;;28.50;11.32;;;;;;;1.58;65.21;100737.91;4423893;32;20093;-78
2022/03/05 06:31:22;;;;;;;23.52;10.88;;;;;;;1.64;64.19;100740.72;4424122;32;20127;-78
2022/03/05 06:33:50;;;;;;;21.27;10.32;;;;;;;1.66;64.54;100744.22;4423972;32;20097;-78
2022/03/05 06:36:17;;;;;;;18.70;10.13;;;;;;;1.78;63.70;100746.31;4423811;32;20128;-78
2022/03/05 06:38:45;;;;;;;20.90;9.52;;;;;;;1.82;63.52;100741.25;4409702;32;20135;-78
2022/03/05 06:41:12;;;;;;;21.58;9.98;;;;;;;2.00;62.30;100735.69;4423592;32;20123;-78
2022/03/05 06:43:40;;;;;;;17.65;8.77;;;;;;;2.08;61.96;100743.69;4423540;32;20515;-78
2022/03/05 06:46:07;;;;;;;25.60;10.60;;;;;;;2.19;61.61;100747.50;4409441;32;20175;-78
2022/03/05 06:48:35;;;;;;;22.45;9.48;;;;;;;2.30;61.27;100746.06;4423856;32;20381;-78
2022/03/05 06:51:02;;;;;;;19.27;9.65;;;;;;;2.24;60.74;100740.69;4423858;32;20331;-78
2022/03/05 06:53:29;;;;;;;22.08;9.80;;;;;;;2.46;60.60;100742.16;4423819;32;20097;-78
2022/03/05 06:55:57;;;;;;;18.77;9.55;;;;;;;2.61;59.48;100741.66;4424037;32;20131;-78
2022/03/05 06:58:24;;;;;;;21.80;9.90;;;;;;;2.58;60.08;100746.78;4423750;32;20120;-78
2022/03/05 07:00:51;;;;;;;18.02;9.55;;;;;;;2.68;59.60;100748.78;4423791;32;20101;-78
2022/03/05 07:03:19;;;;;;;20.75;10.15;;;;;;;2.65;60.25;100751.34;4423723;32;20590;-78
2022/03/05 07:05:46;;;;;;;19.33;10.38;;;;;;;2.79;59.90;100752.56;4409521;32;20182;-78
2022/03/05 07:08:13;;;;;;;22.35;10.40;;;;;;;2.89;60.03;100748.47;4396656;32;20073;-78
2022/03/05 07:10:41;;;;;;;23.90;10.23;;;;;;;3.12;59.12;100754.25;4423952;32;20499;-78
2022/03/05 07:13:08;;;;;;;22.30;9.38;;;;;;;3.16;58.70;100756.06;4423697;32;20108;-78
2022/03/05 07:15:35;;;;;;;21.42;9.98;;;;;;;3.22;58.81;100755.34;4423601;32;20900;-78
2022/03/05 07:18:03;;;;;;;24.73;10.20;;;;;;;3.35;57.89;100757.38;4409396;32;20176;-78
2022/03/05 07:20:30;;;;;;;17.42;8.73;;;;;;;3.32;57.85;100759.91;4423619;32;20170;-78
2022/03/05 07:22:57;;;;;;;17.08;9.43;;;;;;;3.40;57.26;100760.13;4423714;32;20105;-78
2022/03/05 07:25:25;;;;;;;19.95;9.27;;;;;;;3.49;57.32;100762.91;4423519;32;20507;-78
2022/03/05 07:27:52;;;;;;;19.75;9.25;;;;;;;3.53;56.99;100760.44;4423594;32;20158;-78
2022/03/05 07:30:19;;;;;;;18.95;8.80;;;;;;;3.59;56.42;100757.94;4423610;32;20432;-78
2022/03/05 07:32:46;;;;;;;14.70;8.30;;;;;;;3.75;55.80;100767.00;4423632;32;20467;-78
2022/03/05 07:35:13;;;;;;;20.08;9.27;;;;;;;3.80;55.77;100764.47;4423617;32;20117;-78
2022/03/05 07:37:41;;;;;;;20.37;8.80;;;;;;;3.81;55.52;100771.44;4423439;32;20467;-78
2022/03/05 07:40:09;;;;;;;14.63;8.15;;;;;;;3.80;55.65;100770.56;4409185;32;20118;-78
2022/03/05 07:42:37;;;;;;;16.20;7.55;;;;;;;4.01;54.99;100762.31;4423524;32;20097;-78
2022/03/05 07:45:04;;;;;;;20.20;8.13;;;;;;;4.08;55.07;100768.53;4423430;32;20516;-78
2022/03/05 07:47:32;;;;;;;17.70;8.68;;;;;;;4.21;54.68;100765.34;4423598;32;20156;-78
2022/03/05 07:50:00;;;;;;;18.45;8.50;;;;;;;4.05;55.57;100766.75;4423381;32;20473;-78
2022/03/05 07:52:27;;;;;;;17.00;7.75;;;;;;;4.06;56.33;100775.44;4409104;32;20098;-78
2022/03/05 07:54:54;;;;;;;19.73;7.90;;;;;;;4.07;57.15;100774.62;4423358;32;20553;-78
2022/03/05 07:57:21;;;;;;;13.40;7.60;;;;;;;3.96;57.39;100773.53;4423432;32;20150;-78
2022/03/05 07:59:48;;;;;;;14.10;7.05;;;;;;;3.93;57.45;100781.28;4423408;32;20105;-78
2022/03/05 08:02:37;;;;;;;14.63;7.12;;;;;;;3.91;57.64;100783.81;4423328;32;20112;-78
2022/03/05 08:05:05;;;;;;;14.82;6.55;;;;;;;3.79;58.31;100784.44;4423466;32;20139;-78
2022/03/05 08:07:33;;;;;;;13.48;7.07;;;;;;;3.83;58.24;100786.28;4423262;32;20159;-78
2022/03/05 08:10:00;;;;;;;17.23;7.43;;;;;;;3.92;57.88;100779.50;4423381;32;20496;-78
2022/03/05 08:12:28;;;;;;;19.80;6.70;;;;;;;3.92;58.39;100795.12;4423419;32;20208;-78
2022/03/05 08:14:55;;;;;;;16.77;7.53;;;;;;;3.80;58.50;100791.41;4422952;32;20202;-78
2022/03/05 08:17:23;;;;;;;16.02;6.87;;;;;;;3.92;58.08;100792.53;4423095;32;20086;-78
2022/03/05 08:19:50;;;;;;;16.08;7.70;;;;;;;4.11;57.97;100784.25;4423360;32;20162;-78
2022/03/05 08:22:21;;;;;;;15.45;8.18;;;;;;;3.96;58.47;100784.81;4423251;32;20485;-78
2022/03/05 08:24:48;;;;;;;16.42;7.72;;;;;;;4.04;58.48;100787.59;4423029;32;20102;-78
2022/03/05 08:27:16;;;;;;;16.35;7.72;;;;;;;4.06;59.13;100789.37;4423133;32;20123;-78
2022/03/05 08:29:44;;;;;;;14.90;7.50;;;;;;;4.20;58.42;100786.16;4423083;32;20089;-78
2022/03/05 08:32:12;;;;;;;20.45;7.95;;;;;;;4.15;58.30;100793.03;4423080;32;20101;-78
2022/03/05 08:34:39;;;;;;;17.73;8.10;;;;;;;4.20;58.70;100794.00;4423012;32;20128;-79
2022/03/05 08:37:07;;;;;;;22.35;9.13;;;;;;;4.24;58.71;100795.81;4422935;32;20086;-78
2022/03/05 08:39:34;;;;;;;19.42;8.57;;;;;;;4.14;58.79;100796.50;4423113;32;20104;-78
2022/03/05 08:42:02;;;;;;;29.42;9.35;;;;;;;4.01;59.45;100801.44;4422821;32;20096;-78
2022/03/05 08:44:29;;;;;;;18.90;8.95;;;;;;;4.03;59.37;100801.47;4422779;32;20203;-78
2022/03/05 08:46:56;;;;;;;18.70;8.75;;;;;;;4.14;59.64;100804.31;4422860;32;20669;-78
2022/03/05 08:49:24;;;;;;;22.10;8.70;;;;;;;4.12;59.98;100801.66;4422885;32;20160;-78
2022/03/05 08:51:51;;;;;;;17.80;8.88;;;;;;;4.15;60.23;100804.34;4422728;32;20143;-78
2022/03/05 08:54:20;;;;;;;17.77;8.27;;;;;;;4.03;59.91;100810.19;4422817;32;20132;-78
2022/03/05 08:56:48;;;;;;;17.55;8.35;;;;;;;4.13;59.55;100808.62;4408452;32;20550;-78
2022/03/05 08:59:16;;;;;;;18.20;8.90;;;;;;;4.20;59.66;100797.47;4422669;32;20088;-78
2022/03/05 09:01:43;;;;;;;17.15;7.03;;;;;;;4.25;58.50;100803.69;4408309;32;20172;-78
2022/03/05 09:04:12;;;;;;;15.52;7.85;;;;;;;4.23;58.49;100807.97;4422872;32;20106;-78
2022/03/05 09:06:39;;;;;;;12.73;6.60;;;;;;;4.43;58.14;100802.28;4424335;32;20157;-78
2022/03/05 09:09:07;;;;;;;17.92;7.43;;;;;;;4.46;57.84;100797.13;4424466;32;20119;-78
2022/03/05 09:11:37;;;;;;;18.40;8.45;;;;;;;4.60;57.67;100803.50;4424408;32;20151;-78
2022/03/05 09:14:06;;;;;;;21.10;7.70;;;;;;;4.66;56.15;100797.50;4424612;32;20127;-78
2022/03/05 09:16:38;;;;;;;17.95;7.40;;;;;;;4.57;55.94;100800.81;4424399;32;20116;-78
2022/03/05 09:19:07;;;;;;;17.02;8.13;;;;;;;4.56;56.03;100801.69;4424521;32;20546;-78
2022/03/05 09:21:35;;;;;;;14.02;7.80;;;;;;;4.72;55.92;100800.22;4424582;32;20128;-78
2022/03/05 09:24:03;;;;;;;14.77;7.65;;;;;;;4.84;54.32;100802.19;4424542;32;20105;-78
2022/03/05 09:26:32;;;;;;;18.80;9.02;;;;;;;4.83;54.67;100798.69;4424409;32;20725;-78
2022/03/05 09:28:59;;;;;;;19.90;8.65;;;;;;;5.17;54.65;100796.69;4424568;32;20124;-78
2022/03/05 09:31:26;;;;;;;17.65;7.95;;;;;;;5.27;54.88;100798.59;4424447;32;20372;-78
2022/03/05 09:33:54;;;;;;;21.42;8.35;;;;;;;5.61;53.16;100793.88;4424276;32;20094;-79
2022/03/05 09:36:21;;;;;;;16.10;8.10;;;;;;;5.87;51.59;100792.53;4410041;32;20085;-78
2022/03/05 09:38:48;;;;;;;18.17;8.00;;;;;;;6.08;50.57;100797.19;4424340;32;20097;-78
2022/03/05 09:41:16;;;;;;;15.82;7.60;;;;;;;6.14;50.25;100797.25;4424253;32;20093;-78
2022/03/05 09:43:43;;;;;;;21.37;9.15;;;;;;;6.28;49.77;100789.56;4424260;32;20132;-78
2022/03/05 09:46:11;;;;;;;23.80;8.77;;;;;;;6.73;48.08;100796.19;4424288;32;20167;-79
2022/03/05 09:48:40;;;;;;;21.80;8.73;;;;;;;7.19;47.33;100792.25;4424270;32;20171;-77
2022/03/05 09:51:07;;;;;;;19.15;9.27;;;;;;;7.57;46.63;100799.56;4424153;32;20097;-76
2022/03/05 09:53:35;;;;;;;21.20;9.43;;;;;;;7.91;45.53;100791.88;4424247;32;20106;-76
2022/03/05 09:56:02;;;;;;;14.68;8.38;;;;;;;7.97;44.98;100786.66;4424108;32;20132;-76
2022/03/05 09:58:51;;;;;;;14.73;8.20;;;;;;;8.36;43.65;100785.97;4424117;32;20094;-76
2022/03/05 10:01:19;;;;;;;23.42;10.02;;;;;;;9.09;42.02;100785.28;4424182;32;20093;-76
2022/03/05 10:03:49;;;;;;;13.05;7.68;;;;;;;9.48;41.60;100778.25;4424124;32;20128;-77
2022/03/05 10:06:18;;;;;;;15.02;7.35;;;;;;;9.50;39.71;100784.38;4423966;32;20093;-77
2022/03/05 10:08:46;;;;;;;13.75;7.82;;;;;;;9.73;39.24;100783.47;4424067;32;20136;-77
2022/03/05 10:11:14;;;;;;;17.37;8.50;;;;;;;9.78;38.83;100773.81;4423948;32;20101;-77
2022/03/05 10:13:43;;;;;;;17.10;9.05;;;;;;;9.31;39.32;100787.91;4424098;32;20172;-77
2022/03/05 10:16:26;;;;;;;12.80;7.80;;;;;;;8.85;40.54;100774.75;4423339;32;20085;-77
2022/03/05 10:18:54;;;;;;;17.55;8.48;;;;;;;9.03;40.51;100780.00;4423972;32;20486;-77
2022/03/05 10:21:32;;;;;;;15.15;8.02;;;;;;;8.83;40.69;100781.72;4423842;32;20097;-76
2022/03/05 10:24:07;;;;;;;16.15;8.95;;;;;;;8.96;39.78;100780.88;4424075;32;20125;-77
2022/03/05 10:26:56;;;;;;;16.33;8.45;;;;;;;9.20;39.36;100771.25;4423888;32;20481;-76
2022/03/05 10:29:34;;;;;;;16.75;9.07;;;;;;;9.74;37.64;100765.03;4423786;32;20579;-78
2022/03/05 10:32:05;;;;;;;12.48;7.78;;;;;;;10.14;37.18;100762.31;4423991;32;20130;-77
2022/03/05 10:34:42;;;;;;;13.00;7.68;;;;;;;10.68;36.76;100768.19;4409415;32;20137;-77
2022/03/05 10:37:11;;;;;;;16.98;8.77;;;;;;;10.93;35.80;100770.66;4423929;32;20085;-77
2022/03/05 10:39:38;;;;;;;15.40;7.65;;;;;;;9.89;35.95;100776.41;4423797;32;20189;-77
2022/03/05 10:42:39;;;;;;;11.88;6.93;;;;;;;9.20;37.28;100768.63;4423892;32;20570;-76
2022/03/05 10:45:18;;;;;;;17.37;8.13;;;;;;;9.99;36.90;100765.84;4381990;32;20113;-77
2022/03/05 10:47:47;;;;;;;14.90;7.87;;;;;;;10.22;36.42;100767.53;4423763;32;20127;-77
2022/03/05 10:50:14;;;;;;;14.10;7.95;;;;;;;9.65;36.90;100764.22;4423892;32;20101;-77
2022/03/05 10:52:53;;;;;;;15.02;7.80;;;;;;;9.29;38.01;100768.63;4423711;32;20089;-76
2022/03/05 10:55:23;;;;;;;17.25;8.07;;;;;;;9.40;36.99;100772.13;4423691;32;20145;-77
2022/03/05 10:57:57;;;;;;;18.35;7.90;;;;;;;8.52;37.87;100768.56;4409574;32;20093;-77
2022/03/05 11:00:25;;;;;;;13.23;7.30;;;;;;;7.76;39.22;100768.19;4423861;32;20497;-76
2022/03/05 11:02:56;;;;;;;14.65;8.02;;;;;;;7.96;39.08;100769.19;4423658;32;20586;-76
2022/03/05 11:05:24;;;;;;;11.32;6.55;;;;;;;8.96;38.05;100762.47;4409749;32;20114;-76
2022/03/05 11:07:53;;;;;;;16.77;8.23;;;;;;;9.23;36.15;100761.63;4423807;32;20556;-76
2022/03/05 11:10:24;;;;;;;15.55;8.00;;;;;;;9.19;37.13;100752.00;4423819;32;20085;-76
2022/03/05 11:12:56;;;;;;;13.52;6.85;;;;;;;8.98;37.43;100755.50;4409104;32;20129;-76
2022/03/05 11:15:24;;;;;;;14.27;7.05;;;;;;;9.10;37.08;100755.47;4423564;32;20170;-76
2022/03/05 11:17:51;;;;;;;15.57;7.28;;;;;;;8.48;37.77;100751.03;4396745;32;20112;-76
2022/03/05 11:20:19;;;;;;;11.90;6.95;;;;;;;8.26;38.80;100747.41;4409419;32;20085;-76
2022/03/05 11:22:49;;;;;;;16.37;7.70;;;;;;;8.30;38.45;100756.19;4409224;32;20105;-76
2022/03/05 11:25:22;;;;;;;18.27;7.65;;;;;;;8.05;39.09;100747.34;4423686;32;20495;-76
2022/03/05 11:28:03;;;;;;;19.45;7.62;;;;;;;8.14;39.86;100743.00;4423286;32;20145;-76